首页
METAR-TAF:

METAR-TAF

机场 :

倫敦盧頓機場

卢顿, 英格兰

纬度: 51-52N, 经度: 000-22W, 海拔: 160米

当前天气观测

该预报发布于20分钟前的10:20 UTC
风速9节,风向北转西北
温度 16°C
湿度 94%
气压 1014 hPa
能見度: 2700
大雨

METAR: EGGW 141020Z AUTO 34009KT 2700 R07/1400 +RA OVC002/// //////CB 16/15 Q1014

时间: 11:40 (10:40 UTC)

预报

该预报发布于1小时和43分钟前的08:57 UTC
预报有效从14日的 08点(UTC)到 15日的 06点(UTC)
风速9节,风向
能見度: 2500
多云层高于200英尺
轻雾
短暂存在
从 14日的 08点(UTC)到 15日的 06点(UTC)
阵雨
短暂存在
从 14日的 08点(UTC)到 14日的 10点(UTC)
能見度: 0800
阴天层高于100英尺
几率 40% :
短暂存在
从 14日的 08点(UTC)到 14日的 24点(UTC)
能見度: 3000
大阵雨, 雷暴, 大雨
成为
从 14日的 09点(UTC)到 14日的 13点(UTC)
能見度: 7000
散云层高于500英尺
多云层高于1000英尺
短暂存在
从 14日的 14点(UTC)到 14日的 20点(UTC)
散云层高于1500英尺
成为
从 14日的 21点(UTC)到 14日的 24点(UTC)
能見度: 3000
多云层高于500英尺
轻雾
几率 40%
从 14日的 23点(UTC)到 15日的 06点(UTC)
能見度: 0300
多云层低于100英尺
几率 30% :
短暂存在
从 15日的 04点(UTC)到 15日的 06点(UTC)
大阵雨, 雷暴, 大雨

TAF: EGGW 140857Z 1408/1506 01009KT 2500 BR BKN002 TEMPO 1408/1506 SHRA TEMPO 1408/1410 0800 FG OVC001 PROB40 TEMPO 1408/1424 3000 +SHRA +TSRA BECMG 1409/1413 7000 NSW SCT005 BKN010 TEMPO 1414/1420 SCT015 BECMG 1421/1424 3000 BR BKN005 PROB40 1423/1506 0300 FG BKN000 PROB30 TEMPO 1504/1506 +SHRA +TSRA

超过4000个机场的气象观测和天气预报(METAR&TAF报告)。

可查询的气象台以黄色和红色小点在地图上表示。

将鼠标移到小点上方,可查看气象台名称。

然后点击查看天气观测和预报。

如需切换地图:点击带黑十字的绿色按钮放大地图;点击带横线的绿色按钮缩小地图;或者点击绿色箭头查看邻近地区的地图。


METAR-TAF: